Time;durP1;ratioP1;P1;durP2;ratioP2;P2;SDS_P1;SDS_P2;PMS_P1;PMS_P2;Temp;Humidity;BMP_temperature;BMP_pressure;BME280_temperature;BME280_humidity;BME280_pressure;Samples;Min_cycle;Max_cycle;Signal;HPM_P1;HPM_P2
2023/08/16 00:01:30;;;;;;;7.35;6.65;;;14.10;99.90;;;;;;5111916;27;20043;-79
2023/08/16 00:03:55;;;;;;;9.25;6.82;;;14.10;99.90;;;;;;5094250;27;20039;-79
2023/08/16 00:06:21;;;;;;;8.98;6.63;;;14.10;99.90;;;;;;5111967;27;20035;-80
2023/08/16 00:08:46;;;;;;;8.45;7.32;;;14.00;99.90;;;;;;5128972;27;20027;-79
2023/08/16 00:11:12;;;;;;;7.75;6.80;;;14.00;99.90;;;;;;5111668;27;20477;-80
2023/08/16 00:13:38;;;;;;;8.35;7.55;;;14.00;99.90;;;;;;5128839;27;20092;-79
2023/08/16 00:16:04;;;;;;;10.98;7.28;;;13.90;99.90;;;;;;5110831;27;20038;-79
2023/08/16 00:18:30;;;;;;;7.07;6.38;;;14.10;99.90;;;;;;5128443;27;20461;-80
2023/08/16 00:20:56;;;;;;;10.80;7.05;;;13.90;99.90;;;;;;5111468;27;20293;-80
2023/08/16 00:23:22;;;;;;;11.02;7.07;;;13.80;99.90;;;;;;5111486;27;20064;-79
2023/08/16 00:25:47;;;;;;;8.18;7.38;;;13.90;99.90;;;;;;5143865;27;20035;-80
2023/08/16 00:28:13;;;;;;;9.57;6.68;;;13.80;99.90;;;;;;5128969;27;20397;-80
2023/08/16 00:30:39;;;;;;;8.10;6.75;;;13.80;99.90;;;;;;5145731;27;20043;-80
2023/08/16 00:33:04;;;;;;;8.32;6.70;;;13.80;99.90;;;;;;5111482;27;20043;-80
2023/08/16 00:35:30;;;;;;;7.05;6.35;;;13.70;99.90;;;;;;5094358;27;20043;-79
2023/08/16 00:37:58;;;;;;;7.07;6.38;;;13.70;99.90;;;;;;5128540;27;20405;-80
2023/08/16 00:40:24;;;;;;;11.20;6.78;;;13.70;99.90;;;;;;5130266;27;20481;-80
2023/08/16 00:42:50;;;;;;;7.75;6.97;;;13.70;99.90;;;;;;5111241;28;20657;-80
2023/08/16 00:45:15;;;;;;;8.30;6.85;;;13.70;99.90;;;;;;5128432;27;20031;-80
2023/08/16 00:47:42;;;;;;;10.98;7.82;;;13.60;99.90;;;;;;5110553;27;20035;-80
2023/08/16 00:50:08;;;;;;;11.32;7.90;;;13.60;99.90;;;;;;5094459;28;20032;-80
2023/08/16 00:52:34;;;;;;;8.43;7.63;;;13.60;99.90;;;;;;5111448;28;20402;-80
2023/08/16 00:55:02;;;;;;;7.95;7.13;;;13.70;99.90;;;;;;5109803;27;20491;-80
2023/08/16 00:57:28;;;;;;;10.75;8.40;;;13.50;99.90;;;;;;5131820;27;20660;-80
2023/08/16 00:59:54;;;;;;;9.30;8.13;;;13.50;99.90;;;;;;5131819;27;20427;-80
2023/08/16 01:02:20;;;;;;;12.20;8.35;;;13.50;99.90;;;;;;5113865;27;20031;-80
2023/08/16 01:04:47;;;;;;;10.95;8.15;;;13.50;99.90;;;;;;5131914;27;20388;-80
2023/08/16 01:07:12;;;;;;;11.85;7.38;;;13.50;99.90;;;;;;5131838;27;20042;-80
2023/08/16 01:09:38;;;;;;;9.13;8.23;;;13.50;99.90;;;;;;5103961;28;20043;-79
2023/08/16 01:12:24;;;;;;;10.10;8.07;;;13.50;99.90;;;;;;5111145;28;20084;-80
2023/08/16 01:14:59;;;;;;;9.85;8.85;;;13.40;99.90;;;;;;5093325;28;20035;-80
2023/08/16 01:17:25;;;;;;;9.70;8.30;;;13.50;99.90;;;;;;5129776;28;20381;-80
2023/08/16 01:19:55;;;;;;;8.88;8.00;;;13.40;99.90;;;;;;5094085;28;20412;-80
2023/08/16 01:22:32;;;;;;;11.70;8.13;;;13.40;99.90;;;;;;5110862;28;20035;-80
2023/08/16 01:25:10;;;;;;;9.27;8.35;;;13.30;99.90;;;;;;5093820;28;20051;-79
2023/08/16 01:27:36;;;;;;;9.38;7.75;;;13.30;99.90;;;;;;5131001;27;20035;-80
2023/08/16 01:30:04;;;;;;;10.98;8.35;;;13.20;99.90;;;;;;5132942;27;20039;-80
2023/08/16 01:32:31;;;;;;;8.65;7.75;;;13.20;99.90;;;;;;5097617;27;20043;-80
2023/08/16 01:34:57;;;;;;;8.90;8.13;;;13.10;99.90;;;;;;5133172;27;20043;-80
2023/08/16 01:37:23;;;;;;;10.13;8.18;;;13.20;99.90;;;;;;5133016;27;20382;-80
2023/08/16 01:39:51;;;;;;;10.07;8.40;;;13.10;99.90;;;;;;5109389;27;20070;-80
2023/08/16 01:42:17;;;;;;;8.48;7.05;;;13.10;99.90;;;;;;5118334;27;20095;-80
2023/08/16 01:44:45;;;;;;;8.07;7.28;;;13.10;99.90;;;;;;5117771;27;20340;-80
2023/08/16 01:47:12;;;;;;;10.63;8.32;;;13.10;99.90;;;;;;5135118;27;20045;-79
2023/08/16 01:49:40;;;;;;;9.90;8.95;;;13.10;99.90;;;;;;5135023;27;20043;-80
2023/08/16 01:52:06;;;;;;;11.52;9.32;;;13.10;99.90;;;;;;5135160;27;20039;-80
2023/08/16 01:54:32;;;;;;;11.13;8.43;;;13.00;99.90;;;;;;5116259;27;20127;-79
2023/08/16 01:56:57;;;;;;;10.70;8.27;;;13.00;99.90;;;;;;5153633;27;20039;-80
2023/08/16 01:59:23;;;;;;;9.10;8.20;;;13.10;99.90;;;;;;5134538;27;20035;-80
2023/08/16 02:01:49;;;;;;;9.98;9.00;;;13.00;99.90;;;;;;5135185;27;20039;-80
2023/08/16 02:04:14;;;;;;;9.95;8.40;;;13.00;99.90;;;;;;5153126;27;20588;-79
2023/08/16 02:06:40;;;;;;;10.05;7.97;;;12.90;99.90;;;;;;5134877;27;20552;-80
2023/08/16 02:09:06;;;;;;;10.80;8.10;;;12.90;99.90;;;;;;5139475;27;20114;-79
2023/08/16 02:11:31;;;;;;;8.32;7.60;;;12.90;99.90;;;;;;5131146;27;20035;-80
2023/08/16 02:13:57;;;;;;;8.50;7.70;;;12.90;99.90;;;;;;5113778;27;20477;-79
2023/08/16 02:16:24;;;;;;;9.10;7.47;;;12.90;99.90;;;;;;5114106;27;20390;-80
2023/08/16 02:18:51;;;;;;;8.68;7.85;;;12.70;99.90;;;;;;5113976;27;20081;-80
2023/08/16 02:21:17;;;;;;;7.85;7.05;;;12.80;99.90;;;;;;5113689;27;20055;-80
2023/08/16 02:23:43;;;;;;;10.20;8.70;;;12.80;99.90;;;;;;5113449;27;20074;-80
2023/08/16 02:26:09;;;;;;;8.45;7.65;;;12.70;99.90;;;;;;5114081;27;20039;-80
2023/08/16 02:28:34;;;;;;;11.40;7.22;;;12.70;99.90;;;;;;5131567;27;20031;-79
2023/08/16 02:31:07;;;;;;;8.32;7.47;;;12.70;99.90;;;;;;5113458;27;20492;-80
2023/08/16 02:33:33;;;;;;;9.05;8.27;;;12.70;99.90;;;;;;5113573;27;20086;-80
2023/08/16 02:35:59;;;;;;;9.15;8.25;;;12.70;99.90;;;;;;5113447;27;20122;-79
2023/08/16 02:38:25;;;;;;;9.80;8.18;;;12.70;99.90;;;;;;5125148;27;20036;-80
2023/08/16 02:40:51;;;;;;;8.82;7.90;;;12.60;99.90;;;;;;5152388;27;20034;-80
2023/08/16 02:43:16;;;;;;;8.93;8.13;;;12.60;99.90;;;;;;5152278;27;20045;-80
2023/08/16 02:45:43;;;;;;;8.98;8.25;;;12.60;99.90;;;;;;5117039;27;20484;-80
2023/08/16 02:48:08;;;;;;;9.52;8.63;;;12.60;99.90;;;;;;5116631;27;20078;-80
2023/08/16 02:50:34;;;;;;;9.85;8.55;;;12.50;99.90;;;;;;5134244;27;20062;-80
2023/08/16 02:53:00;;;;;;;10.00;8.77;;;12.50;99.90;;;;;;5133613;27;20058;-80
2023/08/16 02:55:25;;;;;;;9.73;8.73;;;12.50;99.90;;;;;;5134019;27;20040;-80
2023/08/16 02:57:52;;;;;;;11.10;9.85;;;12.50;99.90;;;;;;5133747;27;20066;-80
2023/08/16 03:00:18;;;;;;;14.88;9.07;;;12.40;99.90;;;;;;5133822;27;20042;-79
2023/08/16 03:02:44;;;;;;;11.80;9.65;;;12.50;99.90;;;;;;5116467;27;20049;-80
2023/08/16 03:05:10;;;;;;;10.20;9.20;;;12.50;99.90;;;;;;5133976;27;20041;-80
2023/08/16 03:07:36;;;;;;;9.90;9.02;;;12.40;99.90;;;;;;5106819;27;20171;-80
2023/08/16 03:10:02;;;;;;;10.88;9.77;;;12.50;99.90;;;;;;5113029;27;20039;-80
2023/08/16 03:12:28;;;;;;;10.70;9.35;;;12.40;99.90;;;;;;5095802;27;20070;-80
2023/08/16 03:14:54;;;;;;;10.05;9.05;;;12.40;99.90;;;;;;5112896;27;20092;-79
2023/08/16 03:17:19;;;;;;;12.05;9.73;;;12.40;99.90;;;;;;5129857;27;20042;-80
2023/08/16 03:19:45;;;;;;;11.73;9.52;;;12.30;99.90;;;;;;5112780;27;20032;-80
2023/08/16 03:22:11;;;;;;;9.85;8.85;;;12.30;99.90;;;;;;5134732;27;20553;-80
2023/08/16 03:24:36;;;;;;;10.02;9.07;;;12.20;99.90;;;;;;5131085;27;20035;-79
2023/08/16 03:27:02;;;;;;;10.10;8.82;;;12.40;99.90;;;;;;5130526;27;20084;-80
2023/08/16 03:29:28;;;;;;;11.40;9.00;;;12.30;99.90;;;;;;5112642;27;20031;-79
2023/08/16 03:31:54;;;;;;;10.27;9.10;;;12.20;99.90;;;;;;5129405;27;20121;-80
2023/08/16 03:34:19;;;;;;;10.05;9.05;;;12.30;99.90;;;;;;5131037;27;20039;-80
2023/08/16 03:36:45;;;;;;;15.02;9.77;;;12.20;99.90;;;;;;5095687;27;20118;-80
2023/08/16 03:39:11;;;;;;;11.48;9.00;;;12.20;99.90;;;;;;5112579;27;20077;-80
2023/08/16 03:41:37;;;;;;;10.63;9.63;;;12.10;99.90;;;;;;5129236;27;20091;-79
2023/08/16 03:44:06;;;;;;;12.23;10.10;;;12.20;99.90;;;;;;5129436;27;20075;-80
2023/08/16 03:46:32;;;;;;;11.07;10.07;;;12.20;99.90;;;;;;5095118;27;20079;-80
2023/08/16 03:48:57;;;;;;;11.38;10.20;;;12.60;99.90;;;;;;5095231;27;20072;-80
2023/08/16 03:51:23;;;;;;;11.82;10.63;;;12.30;99.90;;;;;;5131664;27;20062;-80
2023/08/16 03:53:49;;;;;;;12.70;11.40;;;12.20;99.90;;;;;;5130619;27;20560;-80
2023/08/16 03:56:15;;;;;;;13.18;11.85;;;12.20;99.90;;;;;;5130202;27;20185;-79
2023/08/16 03:58:40;;;;;;;14.30;11.40;;;12.20;99.90;;;;;;5146223;27;20474;-80
2023/08/16 04:01:06;;;;;;;12.13;10.07;;;12.30;99.90;;;;;;5112270;27;20039;-80
2023/08/16 04:03:31;;;;;;;11.90;10.60;;;12.20;99.90;;;;;;5094826;27;20446;-80
2023/08/16 04:05:57;;;;;;;13.20;11.25;;;12.20;99.90;;;;;;5111805;27;20033;-80
2023/08/16 04:08:23;;;;;;;11.65;10.07;;;12.30;99.90;;;;;;5130619;27;20035;-80
2023/08/16 04:10:48;;;;;;;12.07;10.90;;;12.20;99.90;;;;;;5111091;27;20039;-80
2023/08/16 04:13:14;;;;;;;12.80;10.85;;;12.20;99.90;;;;;;5112364;27;20050;-80
2023/08/16 04:15:40;;;;;;;10.98;9.98;;;12.50;99.90;;;;;;5129880;27;20046;-80
2023/08/16 04:18:05;;;;;;;12.90;11.63;;;12.30;99.90;;;;;;5128731;27;20054;-80
2023/08/16 04:20:31;;;;;;;13.20;11.10;;;12.30;99.90;;;;;;5132226;27;20058;-80
2023/08/16 04:22:56;;;;;;;11.25;10.15;;;12.30;99.90;;;;;;5131885;27;20376;-80
2023/08/16 04:25:22;;;;;;;15.45;9.98;;;12.30;99.90;;;;;;5114569;27;20074;-80
2023/08/16 04:27:48;;;;;;;11.13;10.05;;;12.30;99.90;;;;;;5115262;27;20066;-80
2023/08/16 04:30:14;;;;;;;12.13;9.60;;;12.30;99.90;;;;;;5132023;27;20568;-80
2023/08/16 04:32:39;;;;;;;11.75;10.60;;;12.30;99.90;;;;;;5131975;27;20041;-79
2023/08/16 04:35:05;;;;;;;11.73;10.65;;;12.40;99.90;;;;;;5132105;27;20062;-80
2023/08/16 04:37:31;;;;;;;11.90;9.93;;;12.40;99.90;;;;;;5114387;27;20091;-80
2023/08/16 04:39:57;;;;;;;12.05;10.85;;;12.80;99.90;;;;;;5111351;27;20046;-80
2023/08/16 04:42:23;;;;;;;12.93;10.45;;;12.50;99.90;;;;;;5111472;27;20282;-80
2023/08/16 04:44:48;;;;;;;10.70;9.25;;;12.50;99.90;;;;;;5111092;27;20031;-80
2023/08/16 04:47:14;;;;;;;11.10;9.85;;;12.50;99.90;;;;;;5111373;27;20053;-80
2023/08/16 04:49:40;;;;;;;11.40;10.27;;;12.60;99.90;;;;;;5128266;27;20717;-80
2023/08/16 04:52:05;;;;;;;11.40;10.15;;;12.60;99.90;;;;;;5139474;27;20035;-80
2023/08/16 04:54:31;;;;;;;11.38;10.02;;;12.60;99.90;;;;;;5144845;27;20031;-80
2023/08/16 04:56:58;;;;;;;13.63;10.43;;;12.70;99.90;;;;;;5129612;28;20035;-80
2023/08/16 04:59:23;;;;;;;14.25;11.85;;;12.70;99.90;;;;;;5110941;28;20537;-79
2023/08/16 05:01:49;;;;;;;13.70;11.63;;;12.80;99.90;;;;;;5128508;27;20130;-80
2023/08/16 05:04:15;;;;;;;13.48;11.15;;;12.90;99.90;;;;;;5132416;27;20039;-80
2023/08/16 05:06:41;;;;;;;14.63;12.05;;;12.90;99.90;;;;;;5113000;27;20034;-80
2023/08/16 05:09:07;;;;;;;14.13;11.10;;;12.90;99.90;;;;;;5118058;27;20045;-80
2023/08/16 05:11:33;;;;;;;12.23;11.00;;;13.00;99.90;;;;;;5135909;27;20031;-79
2023/08/16 05:13:58;;;;;;;12.40;11.20;;;13.00;99.90;;;;;;5119896;27;20477;-79
2023/08/16 05:16:24;;;;;;;11.45;10.10;;;13.10;99.90;;;;;;5154359;27;20110;-80
2023/08/16 05:18:52;;;;;;;12.30;10.93;;;13.40;99.90;;;;;;5154191;27;20039;-80
2023/08/16 05:21:18;;;;;;;12.50;11.25;;;13.30;99.90;;;;;;5130792;27;20420;-80
2023/08/16 05:23:44;;;;;;;15.98;10.63;;;13.30;99.90;;;;;;5117753;27;20034;-79
2023/08/16 05:26:10;;;;;;;11.63;9.88;;;13.30;99.90;;;;;;5135517;27;20458;-80
2023/08/16 05:28:36;;;;;;;12.18;10.63;;;13.30;99.90;;;;;;5118311;27;20042;-80
2023/08/16 05:31:12;;;;;;;10.60;9.50;;;13.40;99.90;;;;;;5135283;27;20034;-81
2023/08/16 05:33:38;;;;;;;11.55;10.45;;;13.40;99.90;;;;;;5153835;27;20042;-80
2023/08/16 05:36:05;;;;;;;11.30;9.10;;;13.50;99.90;;;;;;5153471;27;20038;-80
2023/08/16 05:38:32;;;;;;;11.80;10.55;;;13.60;99.90;;;;;;5113863;27;20039;-80
2023/08/16 05:40:58;;;;;;;11.10;9.35;;;13.60;99.90;;;;;;5145148;27;20114;-80
2023/08/16 05:43:24;;;;;;;10.55;9.00;;;13.70;99.90;;;;;;5135220;27;20039;-80
2023/08/16 05:45:50;;;;;;;13.70;9.77;;;13.80;99.90;;;;;;5117718;27;20388;-80
2023/08/16 05:48:15;;;;;;;11.48;9.95;;;13.90;99.90;;;;;;5110715;27;20446;-80
2023/08/16 05:50:41;;;;;;;11.50;9.80;;;14.30;99.90;;;;;;5132630;27;20027;-80
2023/08/16 05:53:07;;;;;;;8.15;7.35;;;15.50;99.90;;;;;;5125054;27;20118;-80
2023/08/16 05:55:33;;;;;;;8.82;7.03;;;16.60;99.90;;;;;;5131005;27;20165;-80
2023/08/16 05:57:59;;;;;;;7.18;6.35;;;17.40;99.90;;;;;;5114142;27;20047;-80
2023/08/16 06:00:25;;;;;;;9.10;6.20;;;18.60;99.90;;;;;;5097248;27;20038;-81
2023/08/16 06:02:52;;;;;;;9.63;6.57;;;19.80;99.90;;;;;;5132768;27;20408;-80
2023/08/16 06:05:18;;;;;;;8.32;6.35;;;20.90;99.90;;;;;;5132100;27;20406;-80
2023/08/16 06:07:44;;;;;;;7.78;7.03;;;22.00;99.90;;;;;;5097246;27;20403;-81
2023/08/16 06:10:10;;;;;;;7.32;5.80;;;22.90;99.90;;;;;;5114105;27;20061;-81
2023/08/16 06:12:36;;;;;;;7.97;6.05;;;23.80;99.90;;;;;;5097117;27;20126;-81
2023/08/16 06:15:02;;;;;;;6.53;5.40;;;24.40;99.90;;;;;;5113863;27;20050;-81
2023/08/16 06:17:28;;;;;;;7.68;5.43;;;24.70;99.90;;;;;;5114036;27;20033;-81
2023/08/16 06:19:54;;;;;;;6.22;5.60;;;24.80;99.90;;;;;;5130482;27;20497;-81
2023/08/16 06:22:19;;;;;;;7.97;6.30;;;24.70;99.90;;;;;;5113756;27;20043;-81
2023/08/16 06:24:45;;;;;;;9.32;6.20;;;24.50;99.90;;;;;;5143084;27;20408;-81
2023/08/16 06:27:11;;;;;;;9.32;6.03;;;24.10;99.90;;;;;;5114035;27;20119;-80
2023/08/16 06:29:37;;;;;;;12.55;6.20;;;23.60;99.90;;;;;;5113840;27;20100;-81
2023/08/16 06:32:03;;;;;;;9.43;5.70;;;23.20;99.90;;;;;;5113812;27;20031;-81
2023/08/16 06:34:29;;;;;;;7.68;5.90;;;22.80;99.90;;;;;;5096343;27;20039;-81
2023/08/16 06:36:55;;;;;;;7.25;6.07;;;22.70;99.90;;;;;;5113628;27;20051;-81
2023/08/16 06:39:21;;;;;;;7.45;6.18;;;22.40;99.90;;;;;;5107291;27;20504;-81
2023/08/16 06:41:48;;;;;;;6.80;5.80;;;22.30;99.90;;;;;;5096595;27;20558;-81
2023/08/16 06:44:13;;;;;;;7.07;5.60;;;22.30;99.90;;;;;;5096317;27;20035;-81
2023/08/16 06:46:39;;;;;;;7.55;5.70;;;22.20;99.90;;;;;;5096438;27;20091;-81
2023/08/16 06:49:05;;;;;;;8.90;7.40;;;22.10;99.90;;;;;;5131716;27;20072;-81
2023/08/16 06:51:30;;;;;;;7.80;6.53;;;21.90;99.90;;;;;;5096383;27;20038;-81
2023/08/16 06:53:56;;;;;;;7.45;6.45;;;22.00;99.90;;;;;;5113250;27;20062;-81
2023/08/16 06:56:22;;;;;;;10.38;7.45;;;22.10;99.90;;;;;;5096387;27;20125;-81
2023/08/16 06:58:49;;;;;;;7.15;6.45;;;22.00;99.90;;;;;;5113437;27;20480;-81
2023/08/16 07:01:14;;;;;;;8.90;8.02;;;21.90;99.90;;;;;;5113226;27;20039;-81
2023/08/16 07:03:40;;;;;;;8.48;7.57;;;21.70;99.90;;;;;;5112853;27;20390;-80
2023/08/16 07:06:06;;;;;;;8.43;7.30;;;21.40;99.90;;;;;;5096153;27;20066;-81
2023/08/16 07:08:32;;;;;;;8.40;6.95;;;21.10;99.90;;;;;;5113108;27;20070;-81
2023/08/16 07:10:57;;;;;;;8.60;7.80;;;20.80;99.90;;;;;;5131570;27;20462;-81
2023/08/16 07:13:23;;;;;;;10.10;7.35;;;20.90;99.90;;;;;;5095846;27;20075;-80
2023/08/16 07:15:49;;;;;;;13.25;8.07;;;20.70;99.90;;;;;;5113098;27;20042;-80
2023/08/16 07:18:15;;;;;;;13.52;8.90;;;20.80;99.90;;;;;;5129502;27;20035;-81
2023/08/16 07:20:41;;;;;;;9.05;8.20;;;20.90;99.90;;;;;;5112665;27;20104;-80
2023/08/16 07:23:06;;;;;;;9.77;8.82;;;21.00;99.90;;;;;;5142212;27;20057;-81
2023/08/16 07:25:33;;;;;;;10.32;8.57;;;20.90;99.90;;;;;;5115600;27;20066;-81
2023/08/16 07:27:58;;;;;;;9.57;8.25;;;21.00;99.90;;;;;;5116352;27;20553;-81
2023/08/16 07:30:24;;;;;;;11.25;8.93;;;21.10;99.90;;;;;;5116035;27;20038;-81
2023/08/16 07:32:50;;;;;;;7.85;6.93;;;21.20;99.90;;;;;;5115562;27;20126;-81
2023/08/16 07:35:16;;;;;;;10.50;8.45;;;21.30;99.90;;;;;;5133057;27;20496;-80
2023/08/16 07:37:43;;;;;;;11.05;6.30;;;21.60;99.90;;;;;;5129192;27;20046;-81
2023/08/16 07:40:10;;;;;;;9.77;7.20;;;22.30;99.90;;;;;;5112368;27;20039;-81
2023/08/16 07:42:36;;;;;;;8.13;6.40;;;23.20;99.90;;;;;;5112729;27;20120;-81
2023/08/16 07:45:03;;;;;;;10.48;8.15;;;24.10;99.90;;;;;;5112562;27;20116;-81
2023/08/16 07:47:29;;;;;;;8.00;7.30;;;24.60;99.90;;;;;;5094883;27;20069;-81
2023/08/16 07:49:55;;;;;;;7.90;6.70;;;25.50;99.90;;;;;;5129491;27;20118;-81
2023/08/16 07:52:21;;;;;;;11.35;10.35;;;25.80;99.90;;;;;;5112048;27;20042;-81
2023/08/16 07:54:47;;;;;;;16.85;15.35;;;25.80;99.90;;;;;;5109068;27;20118;-81
2023/08/16 07:57:12;;;;;;;26.50;24.33;;;25.60;99.90;;;;;;5151508;27;20117;-80
2023/08/16 07:59:41;;;;;;;24.63;22.55;;;25.30;99.90;;;;;;5151323;27;20027;-81
2023/08/16 08:02:07;;;;;;;51.90;47.63;;;24.90;99.90;;;;;;5115187;27;20038;-80
2023/08/16 08:04:33;;;;;;;22.13;20.42;;;24.30;99.90;;;;;;5115374;27;20485;-81
2023/08/16 08:07:00;;;;;;;20.15;18.20;;;23.80;99.90;;;;;;5132821;27;20035;-81
2023/08/16 08:09:26;;;;;;;15.13;13.88;;;23.50;99.90;;;;;;5133729;27;20050;-80
2023/08/16 08:11:51;;;;;;;34.55;31.73;;;23.20;99.90;;;;;;5094915;27;20207;-81
2023/08/16 08:14:17;;;;;;;35.08;32.55;;;23.40;99.90;;;;;;5112012;27;20070;-81
2023/08/16 08:16:44;;;;;;;36.92;33.78;;;24.10;99.90;;;;;;5111155;27;20041;-81
2023/08/16 08:19:09;;;;;;;46.55;43.00;;;24.40;99.90;;;;;;5112359;27;20386;-81
2023/08/16 08:21:35;;;;;;;47.85;44.50;;;24.90;99.90;;;;;;5111635;27;20090;-81
2023/08/16 08:24:00;;;;;;;45.78;42.00;;;25.40;99.90;;;;;;5111476;27;20043;-81
2023/08/16 08:26:26;;;;;;;99.28;90.80;;;25.40;99.90;;;;;;5094778;27;20039;-81
2023/08/16 08:28:52;;;;;;;811.30;737.90;;;25.50;99.90;;;;;;5111614;27;20128;-81
2023/08/16 08:31:18;;;;;;;447.15;308.10;;;26.20;99.90;;;;;;5094048;27;20042;-81
2023/08/16 08:33:45;;;;;;;968.95;640.85;;;25.40;99.90;;;;;;5094407;27;20038;-80
2023/08/16 08:36:11;;;;;;;653.08;483.00;;;24.70;99.90;;;;;;5110854;27;20062;-80
2023/08/16 08:38:37;;;;;;;462.65;297.02;;;24.00;99.90;;;;;;5129350;27;20043;-80
2023/08/16 08:41:03;;;;;;;442.35;375.48;;;23.90;99.90;;;;;;5111329;27;20039;-81
2023/08/16 08:43:37;;;;;;;836.28;665.00;;;24.20;99.90;;;;;;5111176;27;20103;-81
2023/08/16 08:46:06;;;;;;;1330.00;764.65;;;24.20;99.90;;;;;;5110912;27;20122;-81
2023/08/16 08:48:33;;;;;;;1114.28;679.30;;;23.70;99.90;;;;;;5094463;27;20035;-80
2023/08/16 08:51:00;;;;;;;698.13;425.73;;;23.40;99.90;;;;;;5111368;28;20467;-80
2023/08/16 08:53:27;;;;;;;524.22;394.42;;;22.80;99.90;;;;;;5125914;27;20038;-80
2023/08/16 08:55:55;;;;;;;751.65;533.90;;;22.60;99.90;;;;;;5131709;27;20035;-80
2023/08/16 08:58:24;;;;;;;535.97;323.45;;;22.70;99.90;;;;;;5131903;27;20042;-80
2023/08/16 09:00:51;;;;;;;806.55;593.10;;;22.50;99.90;;;;;;5149696;27;20034;-80
2023/08/16 09:03:20;;;;;;;461.10;308.20;;;22.70;99.90;;;;;;5149983;27;20050;-80
2023/08/16 09:05:50;;;;;;;768.83;544.88;;;22.80;99.90;;;;;;5131524;27;20091;-80
2023/08/16 09:08:16;;;;;;;1751.30;956.78;;;23.10;99.90;;;;;;5115692;28;20039;-81
2023/08/16 09:10:42;;;;;;;1702.70;905.75;;;23.40;99.90;;;;;;5094036;28;20032;-81
2023/08/16 09:13:10;;;;;;;1474.65;799.55;;;23.70;99.90;;;;;;5110977;28;20481;-80
2023/08/16 09:15:36;;;;;;;1080.68;672.88;;;23.40;99.90;;;;;;5128724;28;20047;-80
2023/08/16 09:18:43;;;;;;;;;;;;;;;;;;;;;
2023/08/16 09:21:14;;;;;;;1149.80;551.08;;;23.30;99.90;;;;;;5124233;28;20056;-81
2023/08/16 09:23:40;;;;;;;895.97;584.05;;;23.30;99.90;;;;;;5105150;27;20043;-81
2023/08/16 09:26:13;;;;;;;274.13;226.88;;;23.30;99.90;;;;;;5148744;27;20035;-80
2023/08/16 09:28:39;;;;;;;1987.35;987.22;;;23.10;99.90;;;;;;5131465;27;20115;-81
2023/08/16 09:31:06;;;;;;;1351.45;673.67;;;22.90;99.90;;;;;;5148973;27;20468;-80
2023/08/16 09:33:34;;;;;;;1407.40;789.90;;;22.80;99.90;;;;;;5131520;27;20480;-81
2023/08/16 09:36:01;;;;;;;944.25;620.25;;;22.80;99.90;;;;;;5148755;27;20166;-80
2023/08/16 09:38:27;;;;;;;492.38;323.70;;;22.60;99.90;;;;;;5146657;27;20515;-80
2023/08/16 09:40:53;;;;;;;314.48;223.77;;;22.40;99.90;;;;;;5148560;27;20126;-80
2023/08/16 09:43:19;;;;;;;541.58;437.38;;;22.20;99.90;;;;;;5148341;27;20587;-80
2023/08/16 09:45:54;;;;;;;230.93;187.10;;;22.10;99.90;;;;;;5131199;27;20045;-81
2023/08/16 09:48:21;;;;;;;495.95;446.77;;;22.10;99.90;;;;;;5132436;27;20035;-80
2023/08/16 09:50:47;;;;;;;457.23;370.42;;;22.20;99.90;;;;;;5152266;27;20042;-80
2023/08/16 09:53:13;;;;;;;543.05;472.90;;;22.20;99.90;;;;;;5153524;27;20089;-80
2023/08/16 09:55:42;;;;;;;172.55;142.30;;;22.20;99.90;;;;;;5143117;27;20062;-80
2023/08/16 09:58:08;;;;;;;148.23;132.07;;;22.10;99.90;;;;;;5136589;27;20108;-80
2023/08/16 10:00:34;;;;;;;152.50;137.98;;;22.10;99.90;;;;;;5135090;27;20465;-81
2023/08/16 10:03:01;;;;;;;281.35;255.93;;;22.10;99.90;;;;;;5152084;27;20530;-80
2023/08/16 10:05:27;;;;;;;169.77;151.98;;;22.10;99.90;;;;;;5135013;27;20423;-80
2023/08/16 10:07:56;;;;;;;220.45;196.32;;;22.30;99.90;;;;;;5134869;27;20034;-80
2023/08/16 10:10:22;;;;;;;299.75;271.45;;;22.30;99.90;;;;;;5153431;27;20043;-79
2023/08/16 10:12:48;;;;;;;279.38;250.55;;;22.20;99.90;;;;;;5150080;27;20031;-81
2023/08/16 10:15:14;;;;;;;362.20;330.80;;;22.30;99.90;;;;;;5134917;27;20038;-80
2023/08/16 10:17:42;;;;;;;1676.38;999.90;;;22.50;99.90;;;;;;5134812;27;20446;-81
2023/08/16 10:20:20;;;;;;;1126.53;869.83;;;22.50;99.90;;;;;;5153332;27;20043;-80
2023/08/16 10:22:50;;;;;;;936.67;819.03;;;22.80;99.90;;;;;;5155553;27;20042;-80
2023/08/16 10:25:23;;;;;;;1041.55;704.13;;;23.00;99.90;;;;;;5155274;27;20038;-80
2023/08/16 10:27:50;;;;;;;1432.57;944.95;;;23.00;99.90;;;;;;5131947;27;20249;-81
2023/08/16 10:30:23;;;;;;;1514.25;965.47;;;22.70;99.90;;;;;;5117183;27;20039;-80
2023/08/16 10:33:28;;;;;;;1335.35;967.85;;;22.50;99.90;;;;;;5134394;27;20038;-80
2023/08/16 10:35:54;;;;;;;912.45;731.90;;;22.60;99.90;;;;;;5015162;28;20032;-80
2023/08/16 10:38:20;;;;;;;405.08;367.67;;;22.70;99.90;;;;;;5048208;28;20529;-80
2023/08/16 10:40:57;;;;;;;1391.38;985.90;;;22.60;99.90;;;;;;5031371;28;20060;-80
2023/08/16 10:43:32;;;;;;;672.08;620.33;;;22.60;99.90;;;;;;5014891;28;20049;-80
2023/08/16 10:45:57;;;;;;;783.58;702.10;;;22.80;99.90;;;;;;5015069;28;20495;-80
2023/08/16 10:48:23;;;;;;;1935.65;999.90;;;22.80;99.90;;;;;;5015033;28;20075;-80
2023/08/16 10:50:56;;;;;;;1760.55;999.90;;;22.90;99.90;;;;;;5031301;28;20110;-81
2023/08/16 10:53:25;;;;;;;1742.82;999.90;;;23.00;99.90;;;;;;5047969;28;20116;-80
2023/08/16 10:55:55;;;;;;;1999.90;999.90;;;23.30;99.90;;;;;;5014084;28;20045;-81
2023/08/16 10:58:25;;;;;;;1999.90;999.90;;;23.30;99.90;;;;;;5045506;28;20163;-81
2023/08/16 11:00:59;;;;;;;1999.90;990.58;;;23.50;99.90;;;;;;5033372;28;20076;-81
2023/08/16 11:03:32;;;;;;;1999.90;999.90;;;23.60;99.90;;;;;;5067723;28;20106;-80
2023/08/16 11:05:59;;;;;;;;;;;23.80;99.90;;;;;;5051486;28;20051;-81
2023/08/16 11:08:29;;;;;;;1914.50;307.23;;;23.90;99.90;;;;;;5050876;28;20007;-80
2023/08/16 11:10:55;;;;;;;1999.90;999.90;;;24.00;99.90;;;;;;5165807;27;20496;-81
2023/08/16 11:13:21;;;;;;;1789.57;808.40;;;23.90;99.90;;;;;;5154321;27;20102;-81
2023/08/16 11:15:47;;;;;;;1999.90;999.90;;;23.90;99.90;;;;;;5136961;27;20030;-80
2023/08/16 11:18:13;;;;;;;1999.90;999.90;;;23.80;99.90;;;;;;5137231;27;20395;-81
2023/08/16 11:20:41;;;;;;;1999.90;999.90;;;23.70;99.90;;;;;;5172622;27;20042;-81
2023/08/16 11:23:07;;;;;;;1999.90;999.90;;;23.70;99.90;;;;;;5154332;27;20098;-81
2023/08/16 11:25:33;;;;;;;1999.90;999.90;;;23.50;99.90;;;;;;5136339;27;20034;-81
2023/08/16 11:28:03;;;;;;;1999.90;999.90;;;23.50;99.90;;;;;;5152528;27;20450;-80
2023/08/16 11:30:31;;;;;;;1999.90;999.90;;;23.30;99.90;;;;;;5154049;27;20034;-81
2023/08/16 11:32:57;;;;;;;1999.90;999.90;;;23.40;99.90;;;;;;5153930;27;20449;-81
2023/08/16 11:35:26;;;;;;;1999.90;999.90;;;23.40;99.90;;;;;;5153783;27;20038;-81
2023/08/16 11:37:52;;;;;;;1999.90;999.90;;;23.40;99.90;;;;;;5153892;27;20045;-80
2023/08/16 11:40:24;;;;;;;1999.90;999.90;;;23.40;99.90;;;;;;5153236;27;20476;-81
2023/08/16 11:42:53;;;;;;;1999.90;999.90;;;23.50;99.90;;;;;;5153674;27;20045;-80
2023/08/16 11:45:21;;;;;;;1999.90;999.90;;;23.30;99.90;;;;;;5172330;27;20428;-80
2023/08/16 11:47:51;;;;;;;1999.90;999.90;;;23.40;99.90;;;;;;5136111;27;20034;-81
2023/08/16 11:50:17;;;;;;;1999.90;999.90;;;23.40;99.90;;;;;;5136283;27;20049;-80
2023/08/16 11:52:45;;;;;;;1999.90;999.90;;;23.40;99.90;;;;;;5136065;27;20034;-80
2023/08/16 11:55:14;;;;;;;1999.90;999.90;;;23.30;99.90;;;;;;5153129;27;20042;-81
2023/08/16 11:57:44;;;;;;;1999.90;999.90;;;23.30;99.90;;;;;;5154084;27;20399;-80
2023/08/16 12:00:10;;;;;;;1999.90;999.90;;;23.30;99.90;;;;;;5151130;27;20046;-81
2023/08/16 12:02:36;;;;;;;1999.90;999.90;;;23.30;99.90;;;;;;5132564;27;20042;-80
2023/08/16 12:05:11;;;;;;;1999.90;999.90;;;23.60;99.90;;;;;;5132699;27;20035;-80
2023/08/16 12:07:44;;;;;;;1999.90;999.90;;;23.60;99.90;;;;;;5150686;27;20048;-80
2023/08/16 12:10:20;;;;;;;1999.90;999.90;;;23.70;99.90;;;;;;5115473;27;20041;-80
2023/08/16 12:12:45;;;;;;;1999.90;999.90;;;23.50;99.90;;;;;;5115524;27;20380;-80
2023/08/16 12:15:11;;;;;;;1999.90;999.90;;;23.40;99.90;;;;;;5115235;27;20037;-80
2023/08/16 12:17:38;;;;;;;1999.90;999.90;;;23.20;99.90;;;;;;5132617;27;20047;-80
2023/08/16 12:20:05;;;;;;;1999.90;999.90;;;23.30;99.90;;;;;;5132588;27;20030;-81
2023/08/16 12:22:31;;;;;;;1999.90;999.90;;;23.50;99.90;;;;;;5114422;27;20103;-81
2023/08/16 12:24:56;;;;;;;1999.90;999.90;;;23.70;99.90;;;;;;5115012;27;20038;-81
2023/08/16 12:27:22;;;;;;;1999.90;999.90;;;24.00;99.90;;;;;;5146617;27;20065;-80